Time;durP1;ratioP1;P1;durP2;ratioP2;P2;SDS_P1;SDS_P2;PMS_P1;PMS_P2;Temp;Humidity;BMP_temperature;BMP_pressure;BME280_temperature;BME280_humidity;BME280_pressure;Samples;Min_cycle;Max_cycle;Signal;HPM_P1;HPM_P2
2022/06/14 00:01:20;;;;;;;;;;;;;;;-144.99;100.00;52391.03;5085171;28;19990;-77
2022/06/14 00:03:48;;;;;;;;;;;;;;;-144.99;100.00;52356.38;5091303;28;20406;-77
2022/06/14 00:06:15;;;;;;;;;;;;;;;-144.99;100.00;52374.72;5089366;28;19950;-77
2022/06/14 00:08:42;;;;;;;;;;;;;;;-144.99;100.00;52395.09;5083249;28;19938;-77
2022/06/14 00:11:09;;;;;;;;;;;;;;;-144.99;100.00;52366.56;5089296;28;19952;-77
2022/06/14 00:13:36;;;;;;;;;;;;;;;-144.99;100.00;52382.88;5085204;28;19924;-76
2022/06/14 00:16:02;;;;;;;;;;;;;;;-144.99;100.00;52366.56;5079054;28;19965;-77
2022/06/14 00:18:28;;;;;;;;;;;;;;;-144.99;100.00;52382.88;5093019;28;19970;-77
2022/06/14 00:20:57;;;;;;;;;;;;;;;-144.99;100.00;52350.25;5081650;28;19980;-77
2022/06/14 00:23:23;;;;;;;;;;;;;;;-144.99;100.00;52366.56;5089016;28;19935;-78
2022/06/14 00:25:52;;;;;;;;;;;;;;;-144.99;100.00;52362.50;5080989;28;20071;-75
2022/06/14 00:28:19;;;;;;;;;;;;;;;-144.99;100.00;52358.41;5085711;28;20444;-77
2022/06/14 00:30:48;;;;;;;;;;;;;;;-144.99;100.00;52391.03;5108002;28;20159;-78
2022/06/14 00:33:14;;;;;;;;;;;;;;;-144.99;100.00;52362.50;5085984;28;20259;-77
2022/06/14 00:35:41;;;;;;;;;;;;;;;-144.99;100.00;52407.31;5083117;28;20026;-75
2022/06/14 00:38:10;;;;;;;;;;;;;;;-144.99;100.00;52362.50;5081293;28;19942;-73
2022/06/14 00:40:37;;;;;;;;;;;;;;;-144.99;100.00;52380.84;5082548;28;19947;-77
2022/06/14 00:43:05;;;;;;;;;;;;;;;-144.99;100.00;52358.41;5079637;28;19988;-76
2022/06/14 00:45:49;;;;;;;;;;;;;;;-144.99;100.00;52393.06;5076250;28;20008;-76
2022/06/14 00:48:19;;;;;;;;;;;;;;;-144.99;99.91;52362.50;5093976;28;19950;-77
2022/06/14 00:50:49;;;;;;;;;;;;;;;-144.99;100.00;52374.72;5081575;28;20343;-75
2022/06/14 00:53:18;;;;;;;;;;;;;;;-144.99;100.00;52370.63;5080443;28;19940;-75
2022/06/14 00:55:46;;;;;;;;;;;;;;;-144.99;100.00;52370.63;5081070;28;19991;-77
2022/06/14 00:58:14;;;;;;;;;;;;;;;-144.99;100.00;52338.03;5091971;28;20026;-78
2022/06/14 01:00:45;;;;;;;;;;;;;;;-144.99;99.81;52346.19;5083204;28;19965;-77
2022/06/14 01:03:15;;;;;;;;;;;;;;;-144.99;99.74;52374.72;5076573;28;19939;-78
2022/06/14 01:08:28;;;;;;;;;;;;;;;-144.99;99.17;52399.19;5082270;28;19928;-77
2022/06/14 01:10:55;;;;;;;;;;;;;;;-144.99;99.12;52374.72;5086828;28;19947;-76
2022/06/14 01:13:21;;;;;;;;;;;;;;;-144.99;99.06;52313.56;5089146;28;19939;-78
2022/06/14 01:15:49;;;;;;;;;;;;;;;-144.99;99.05;52403.25;5078368;28;19955;-77
2022/06/14 01:18:17;;;;;;;;;;;;;;;-144.99;99.13;52358.41;5092599;28;20061;-77
2022/06/14 01:20:44;;;;;;;;;;;;;;;-144.99;99.20;52395.09;5083197;28;19934;-77
2022/06/14 01:23:14;;;;;;;;;;;;;;;-144.99;99.07;52305.41;5081478;28;19960;-76
2022/06/14 01:25:42;;;;;;;;;;;;;;;-144.99;98.89;52378.78;5082793;28;19965;-76
2022/06/14 01:28:10;;;;;;;;;;;;;;;-144.99;98.91;52395.09;5097317;28;19954;-77
2022/06/14 01:30:39;;;;;;;;;;;;;;;-144.99;98.81;52333.94;5085899;28;20003;-78
2022/06/14 01:33:09;;;;;;;;;;;;;;;-144.99;99.19;52358.41;5081637;28;20524;-78
2022/06/14 01:35:37;;;;;;;;;;;;;;;-144.99;99.06;52325.81;5087500;28;19932;-78
2022/06/14 01:38:05;;;;;;;;;;;;;;;-144.99;98.86;52338.03;5081384;28;20016;-78
2022/06/14 01:40:37;;;;;;;;;;;;;;;-144.99;99.04;52342.09;5083071;28;19943;-75
2022/06/14 01:43:14;;;;;;;;;;;;;;;-144.99;98.77;52338.03;5085072;28;20344;-79
2022/06/14 01:45:45;;;;;;;;;;;;;;;-144.99;99.16;52360.44;5077527;28;19935;-75
2022/06/14 01:48:17;;;;;;;;;;;;;;;-144.99;99.20;52358.41;5088463;28;20259;-76
2022/06/14 01:53:38;;;;;;;;;;;;;;;-144.99;99.38;52331.91;5096431;28;20436;-75
2022/06/14 01:56:10;;;;;;;;;;;;;;;-144.99;99.38;52350.25;5091032;28;19924;-74
2022/06/14 01:58:41;;;;;;;;;;;;;;;-144.99;99.43;52362.50;5090028;28;19963;-75
2022/06/14 02:01:13;;;;;;;;;;;;;;;-144.99;99.67;52344.16;5082104;28;19939;-76
2022/06/14 02:06:29;;;;;;;;;;;;;;;-144.99;99.90;52342.09;5085447;28;19931;-76
2022/06/14 02:09:03;;;;;;;;;;;;;;;-144.99;100.00;52364.53;5080785;28;19965;-76
2022/06/14 02:11:33;;;;;;;;;;;;;;;-144.99;100.00;52378.78;5082580;28;19945;-76
2022/06/14 02:14:04;;;;;;;;;;;;;;;-144.99;100.00;52354.34;5089272;28;19924;-77
2022/06/14 02:16:34;;;;;;;;;;;;;;;-144.99;100.00;52368.59;5078921;28;19974;-75
2022/06/14 02:19:04;;;;;;;;;;;;;;;-144.99;100.00;52333.94;5087361;28;19928;-77
2022/06/14 02:21:33;;;;;;;;;;;;;;;-144.99;100.00;52325.81;5080647;28;19934;-75
2022/06/14 02:24:02;;;;;;;;;;;;;;;-144.99;100.00;52366.56;5080328;28;20019;-75
2022/06/14 02:26:32;;;;;;;;;;;;;;;-144.99;100.00;52393.06;5080876;28;20410;-77
2022/06/14 02:29:05;;;;;;;;;;;;;;;-144.99;100.00;52370.63;5080127;28;20022;-77
2022/06/14 02:31:34;;;;;;;;;;;;;;;-144.99;100.00;52336.00;5075648;28;19931;-78
2022/06/14 02:34:03;;;;;;;;;;;;;;;-144.99;100.00;52366.56;5092734;28;20011;-75
2022/06/14 02:36:31;;;;;;;;;;;;;;;-144.99;100.00;52342.09;5107296;28;19951;-80
2022/06/14 02:39:02;;;;;;;;;;;;;;;-144.99;99.88;52366.56;5099934;28;19978;-76
2022/06/14 02:41:32;;;;;;;;;;;;;;;-144.99;99.70;52338.03;5081568;28;19924;-75
2022/06/14 02:44:04;;;;;;;;;;;;;;;-144.99;99.78;52338.03;5096169;28;20035;-76
2022/06/14 02:46:33;;;;;;;;;;;;;;;-144.99;99.37;52354.34;5082434;28;20041;-76
2022/06/14 02:49:03;;;;;;;;;;;;;;;-144.99;99.37;52350.25;5088188;28;20015;-76
2022/06/14 02:51:33;;;;;;;;;;;;;;;-144.99;99.57;52378.78;5080181;28;20015;-75
2022/06/14 02:54:03;;;;;;;;;;;;;;;-144.99;99.79;52327.84;5088807;28;19993;-73
2022/06/14 02:56:34;;;;;;;;;;;;;;;-144.99;99.81;52342.09;5086088;28;20534;-75
2022/06/14 02:59:06;;;;;;;;;;;;;;;-144.99;99.88;52358.41;5080507;28;20118;-77
2022/06/14 03:01:36;;;;;;;;;;;;;;;-144.99;100.00;52333.94;5090423;28;20057;-78
2022/06/14 03:04:07;;;;;;;;;;;;;;;-144.99;100.00;52374.72;5093362;28;20027;-78
2022/06/14 03:06:37;;;;;;;;;;;;;;;-144.99;100.00;52384.91;5083436;28;20020;-78
2022/06/14 03:09:06;;;;;;;;;;;;;;;-144.99;100.00;52336.00;5077702;28;19925;-78
2022/06/14 03:11:40;;;;;;;;;;;;;;;-144.99;100.00;52368.59;5090697;28;20037;-79
2022/06/14 03:14:16;;;;;;;;;;;;;;;-144.99;100.00;52384.91;5092080;28;19985;-78
2022/06/14 03:16:48;;;;;;;;;;;;;;;-144.99;100.00;52354.34;5088211;28;20131;-82
2022/06/14 03:19:18;;;;;;;;;;;;;;;-144.99;100.00;52340.06;5119479;28;19932;-80
2022/06/14 03:21:48;;;;;;;;;;;;;;;-144.99;100.00;52317.66;5086587;28;20409;-75
2022/06/14 03:24:18;;;;;;;;;;;;;;;-144.99;100.00;52350.25;5086868;28;19973;-78
2022/06/14 03:26:52;;;;;;;;;;;;;;;-144.99;100.00;52313.56;5092901;28;20015;-78
2022/06/14 03:29:23;;;;;;;;;;;;;;;-144.99;100.00;52374.72;5084814;28;19930;-76
2022/06/14 03:31:53;;;;;;;;;;;;;;;-144.99;99.85;52374.72;5090967;28;19928;-76
2022/06/14 03:34:22;;;;;;;;;;;;;;;-144.99;99.66;52338.03;5075785;28;19931;-76
2022/06/14 03:36:49;;;;;;;;;;;;;;;-144.99;99.69;52352.28;5099089;22;19931;-74
2022/06/14 03:39:17;;;;;;;;;;;;;;;-144.99;99.63;52317.66;5083845;28;19935;-72
2022/06/14 03:41:46;;;;;;;;;;;;;;;-144.99;99.78;52342.09;5089009;28;19972;-73
2022/06/14 03:44:13;;;;;;;;;;;;;;;-144.99;99.69;52358.41;5095931;28;19946;-73
2022/06/14 03:46:42;;;;;;;;;;;;;;;-144.99;99.76;52346.19;5091187;28;20032;-73
2022/06/14 03:49:11;;;;;;;;;;;;;;;-144.99;99.77;52384.91;5076258;28;19925;-70
2022/06/14 03:51:52;;;;;;;;;;;;;;;-144.99;99.77;52329.88;5060788;28;19962;-73
2022/06/14 03:54:26;;;;;;;;;;;;;;;-144.99;99.74;52348.22;5066658;28;19928;-71
2022/06/14 03:56:59;;;;;;;;;;;;;;;-144.99;99.88;52313.56;5066835;28;20020;-74
2022/06/14 03:59:38;;;;;;;;;;;;;;;-144.99;99.89;52374.72;5055167;28;19924;-74
2022/06/14 04:02:09;;;;;;;;;;;;;;;-144.99;99.67;52362.50;5066809;28;19924;-73
2022/06/14 04:04:45;;;;;;;;;;;;;;;-144.99;99.55;52321.72;5063550;28;19925;-73
2022/06/14 04:07:18;;;;;;;;;;;;;;;-144.99;100.00;52321.72;5067473;28;19987;-73
2022/06/14 04:09:48;;;;;;;;;;;;;;;-144.99;100.00;52354.34;5070659;28;19936;-73
2022/06/14 04:12:20;;;;;;;;;;;;;;;-144.99;100.00;52354.34;5071027;28;19928;-73
2022/06/14 04:14:55;;;;;;;;;;;;;;;-144.99;100.00;52378.78;5069418;28;19971;-73
2022/06/14 04:17:25;;;;;;;;;;;;;;;-144.99;100.00;52325.81;5067837;28;19960;-73
2022/06/14 04:19:56;;;;;;;;;;;;;;;-144.99;100.00;52325.81;5065099;28;19956;-74
2022/06/14 04:22:25;;;;;;;;;;;;;;;-144.99;100.00;52338.03;5066937;28;20436;-74
2022/06/14 04:24:55;;;;;;;;;;;;;;;-144.99;100.00;52333.94;5063492;28;20031;-74
2022/06/14 04:27:24;;;;;;;;;;;;;;;-144.99;100.00;52336.00;5072025;28;20089;-73
2022/06/14 04:29:54;;;;;;;;;;;;;;;-144.99;100.00;52358.41;5067207;28;20011;-73
2022/06/14 04:32:27;;;;;;;;;;;;;;;-144.99;100.00;52293.19;5062739;28;21119;-74
2022/06/14 04:34:57;;;;;;;;;;;;;;;-144.99;100.00;52329.88;5062133;28;19928;-73
2022/06/14 04:37:24;;;;;;;;;;;;;;;-144.99;100.00;52313.56;5070956;28;20003;-74
2022/06/14 04:39:54;;;;;;;;;;;;;;;-144.99;100.00;52305.41;5066335;28;20016;-74
2022/06/14 04:42:23;;;;;;;;;;;;;;;-144.99;100.00;52305.41;5055624;28;20129;-73
2022/06/14 04:44:53;;;;;;;;;;;;;;;-144.99;100.00;52346.19;5066919;28;19939;-73
2022/06/14 04:47:23;;;;;;;;;;;;;;;-144.99;100.00;52364.53;5066188;28;19959;-73
2022/06/14 04:49:53;;;;;;;;;;;;;;;-144.99;100.00;52336.00;5065585;28;20029;-73
2022/06/14 04:52:21;;;;;;;;;;;;;;;-144.99;99.55;52325.81;5064545;28;19931;-74
2022/06/14 04:54:51;;;;;;;;;;;;;;;-144.99;100.00;52309.50;5068525;28;19924;-73
2022/06/14 04:57:28;;;;;;;;;;;;;;;-144.99;100.00;52360.44;5068060;28;19948;-73
2022/06/14 04:59:56;;;;;;;;;;;;;;;-144.99;100.00;52313.56;5067905;28;19928;-73
2022/06/14 05:02:26;;;;;;;;;;;;;;;-144.99;100.00;52327.84;5067631;28;20024;-72
2022/06/14 05:04:56;;;;;;;;;;;;;;;-144.99;100.00;52342.09;5062422;28;20035;-72
2022/06/14 05:07:25;;;;;;;;;;;;;;;-144.99;100.00;52354.34;5068129;28;19967;-72
2022/06/14 05:09:55;;;;;;;;;;;;;;;-144.99;100.00;52321.72;5068311;28;19924;-73
2022/06/14 05:12:25;;;;;;;;;;;;;;;-144.99;100.00;52305.41;4714522;28;10000068;-72
2022/06/14 05:14:53;;;;;;;;;;;;;;;-144.99;99.32;52338.03;5053029;28;20019;-71
2022/06/14 05:17:23;;;;;;;;;;;;;;;-144.99;98.56;52338.03;5057963;28;19934;-72
2022/06/14 05:19:53;;;;;;;;;;;;;;;-144.99;98.45;52344.16;5066122;28;19966;-72
2022/06/14 05:22:23;;;;;;;;;;;;;;;-144.99;98.58;52344.16;5058489;28;20404;-72
2022/06/14 05:24:50;;;;;;;;;;;;;;;-144.99;97.80;52291.16;5052345;28;20075;-73
2022/06/14 05:27:28;;;;;;;;;;;;;;;-144.99;97.41;52321.72;5061839;28;19935;-72
2022/06/14 05:29:59;;;;;;;;;;;;;;;-144.99;97.94;52313.56;5058082;28;20035;-72
2022/06/14 05:32:28;;;;;;;;;;;;;;;-144.99;98.05;52338.03;5056525;28;19931;-73
2022/06/14 05:34:59;;;;;;;;;;;;;;;-144.99;98.67;52358.41;5064967;28;19932;-72
2022/06/14 05:37:31;;;;;;;;;;;;;;;-144.99;99.10;52325.81;5063751;28;19932;-72
2022/06/14 05:39:59;;;;;;;;;;;;;;;-144.99;98.93;52350.25;5054309;28;20375;-72
2022/06/14 05:42:29;;;;;;;;;;;;;;;-144.99;99.09;52301.34;5064055;28;20433;-71
2022/06/14 05:44:58;;;;;;;;;;;;;;;-144.99;98.70;52311.53;5063542;28;19936;-72
2022/06/14 05:47:28;;;;;;;;;;;;;;;-144.99;98.18;52338.03;5064081;28;19924;-71
2022/06/14 05:49:56;;;;;;;;;;;;;;;-144.99;96.87;52311.53;5057536;28;20307;-72
2022/06/14 05:52:28;;;;;;;;;;;;;;;-144.99;96.04;52319.69;5060976;28;20025;-72
2022/06/14 05:55:00;;;;;;;;;;;;;;;-144.99;95.41;52311.53;5069500;28;19935;-72
2022/06/14 05:57:29;;;;;;;;;;;;;;;-144.99;94.10;52293.19;5056353;28;20391;-72
2022/06/14 05:59:59;;;;;;;;;;;;;;;-144.99;93.87;52303.38;5059316;28;20117;-73
2022/06/14 06:02:29;;;;;;;;;;;;;;;-144.99;92.98;52313.56;5060176;28;19932;-71
2022/06/14 06:04:59;;;;;;;;;;;;;;;-144.99;92.01;52315.59;5062840;28;19963;-72
2022/06/14 06:07:28;;;;;;;;;;;;;;;-144.99;91.23;52262.63;5060117;28;19935;-72
2022/06/14 06:09:57;;;;;;;;;;;;;;;-144.99;90.48;52317.66;5064526;28;20280;-72
2022/06/14 06:12:28;;;;;;;;;;;;;;;-144.99;89.69;52346.19;5050637;28;19929;-73
2022/06/14 06:14:58;;;;;;;;;;;;;;;-144.99;88.68;52301.34;5062930;28;20335;-73
2022/06/14 06:17:28;;;;;;;;;;;;;;;-144.99;88.46;52293.19;5064803;28;19968;-71
2022/06/14 06:19:59;;;;;;;;;;;;;;;-144.99;88.02;52299.31;5055780;28;19986;-70
2022/06/14 06:22:29;;;;;;;;;;;;;;;-144.99;87.21;52305.41;5062819;28;19939;-72
2022/06/14 06:24:57;;;;;;;;;;;;;;;-144.99;86.28;52301.34;5062656;28;19932;-72
2022/06/14 06:27:26;;;;;;;;;;;;;;;-144.99;85.81;52297.25;5066940;28;19928;-71
2022/06/14 06:29:56;;;;;;;;;;;;;;;-144.99;84.97;52305.41;5063799;28;19929;-72
2022/06/14 06:32:24;;;;;;;;;;;;;;;-144.99;84.60;52317.66;5065610;28;19976;-73
2022/06/14 06:34:51;;;;;;;;;;;;;;;-144.99;83.40;52297.25;5063903;28;19935;-71
2022/06/14 06:37:20;;;;;;;;;;;;;;;-144.99;81.36;52309.50;5078076;28;20349;-73
2022/06/14 06:39:49;;;;;;;;;;;;;;;-144.99;80.00;52260.56;5058844;28;19935;-73
2022/06/14 06:42:20;;;;;;;;;;;;;;;-144.99;79.82;52270.78;5066776;28;19935;-72
2022/06/14 06:44:48;;;;;;;;;;;;;;;-144.99;79.16;52272.81;5066244;28;19928;-72
2022/06/14 06:47:20;;;;;;;;;;;;;;;-144.99;76.80;52309.50;5063353;28;20028;-72
2022/06/14 06:49:57;;;;;;;;;;;;;;;-144.99;77.10;52305.41;5061563;28;19972;-70
2022/06/14 06:52:25;;;;;;;;;;;;;;;-144.99;73.74;52268.72;5058470;28;20039;-71
2022/06/14 06:54:55;;;;;;;;;;;;;;;-144.99;72.77;52305.41;5071704;28;19924;-72
2022/06/14 06:57:23;;;;;;;;;;;;;;;-144.99;72.81;52260.56;5065874;28;19933;-72
2022/06/14 06:59:51;;;;;;;;;;;;;;;-144.99;71.82;52276.88;5060990;28;20011;-70
2022/06/14 07:02:21;;;;;;;;;;;;;;;-144.99;71.32;52256.50;5056585;28;20024;-71
2022/06/14 07:05:05;;;;;;;;;;;;;;;-144.99;69.85;52254.47;5067954;28;20318;-71
2022/06/14 07:07:37;;;;;;;;;;;;;;;-144.99;69.73;52293.19;5064462;28;20002;-71
2022/06/14 07:10:06;;;;;;;;;;;;;;;-144.99;70.17;52240.19;5062856;28;19944;-73
2022/06/14 07:12:38;;;;;;;;;;;;;;;-144.99;68.80;52252.44;5065655;28;19951;-74
2022/06/14 07:15:06;;;;;;;;;;;;;;;-144.99;67.07;52270.78;5057281;28;20338;-72
2022/06/14 07:17:36;;;;;;;;;;;;;;;-144.99;64.45;52285.03;5064508;28;20029;-72
2022/06/14 07:20:06;;;;;;;;;;;;;;;-144.99;66.61;52293.19;5064041;28;19935;-72
2022/06/14 07:22:36;;;;;;;;;;;;;;;-144.99;64.55;52276.88;5065472;28;19928;-70
2022/06/14 07:25:09;;;;;;;;;;;;;;;-144.99;63.85;52256.50;5068472;28;20015;-72
2022/06/14 07:27:38;;;;;;;;;;;;;;;-144.99;64.43;52264.66;5063882;28;20407;-72
2022/06/14 07:30:07;;;;;;;;;;;;;;;-144.99;64.81;52248.34;4704042;28;10000463;-72
2022/06/14 07:32:37;;;;;;;;;;;;;;;-144.99;61.86;52238.16;5064718;28;20019;-72
2022/06/14 07:35:04;;;;;;;;;;;;;;;-144.99;61.06;52280.97;4716140;28;9999833;-71
2022/06/14 07:37:39;;;;;;;;;;;;;;;-144.99;60.36;52211.66;5065959;28;19928;-72
2022/06/14 07:40:11;;;;;;;;;;;;;;;-144.99;61.20;52240.19;5056022;28;19940;-73
2022/06/14 07:42:41;;;;;;;;;;;;;;;-144.99;60.85;52252.44;5060687;28;19983;-70
2022/06/14 07:45:10;;;;;;;;;;;;;;;-144.99;60.15;52248.34;5058444;28;20014;-72
2022/06/14 07:47:39;;;;;;;;;;;;;;;-144.99;60.08;52232.03;5062996;28;19971;-72
2022/06/14 07:50:09;;;;;;;;;;;;;;;-144.99;59.92;52260.56;5063938;28;19933;-72
2022/06/14 07:52:42;;;;;;;;;;;;;;;-144.99;58.46;52207.59;5053539;28;20051;-71
2022/06/14 07:55:12;;;;;;;;;;;;;;;-144.99;58.06;52195.34;5057184;28;19928;-71
2022/06/14 07:57:41;;;;;;;;;;;;;;;-144.99;57.80;52219.81;5062832;28;20031;-72
2022/06/14 08:03:00;;;;;;;;;;;;;;;-144.99;56.11;52236.13;5058861;28;19943;-72
2022/06/14 08:05:31;;;;;;;;;;;;;;;-144.99;56.43;52244.28;5058675;28;19932;-72
2022/06/14 08:08:03;;;;;;;;;;;;;;;-144.99;56.32;52219.81;5064395;28;20002;-71
2022/06/14 08:10:32;;;;;;;;;;;;;;;-144.99;55.57;52227.97;5052846;28;19929;-70
2022/06/14 08:13:00;;;;;;;;;;;;;;;-144.99;54.43;52236.13;5052974;28;19929;-74
2022/06/14 08:15:28;;;;;;;;;;;;;;;-144.99;54.95;52285.03;5063465;28;19928;-70
2022/06/14 08:17:58;;;;;;;;;;;;;;;-144.99;54.70;52285.03;5061654;28;19928;-72
2022/06/14 08:20:27;;;;;;;;;;;;;;;-144.99;54.91;52260.56;5059762;28;19935;-73
2022/06/14 08:22:55;;;;;;;;;;;;;;;-144.99;54.89;52252.44;5061206;28;20288;-72
2022/06/14 08:25:24;;;;;;;;;;;;;;;-144.99;54.17;52236.13;5055017;28;20006;-72
2022/06/14 08:27:53;;;;;;;;;;;;;;;-144.99;54.04;52268.72;5067934;28;20100;-72
2022/06/14 08:30:23;;;;;;;;;;;;;;;-144.99;53.46;52248.34;5049255;28;19944;-71
2022/06/14 08:32:52;;;;;;;;;;;;;;;-144.99;54.62;52280.97;5062147;28;19956;-72
2022/06/14 08:35:22;;;;;;;;;;;;;;;-144.99;54.89;52256.50;5055757;28;20012;-73
2022/06/14 08:37:51;;;;;;;;;;;;;;;-144.99;53.07;52215.75;5062803;28;20335;-72
2022/06/14 08:40:32;;;;;;;;;;;;;;;-144.99;51.16;52227.97;5054227;28;19981;-71
2022/06/14 08:43:00;;;;;;;;;;;;;;;-144.99;50.37;52187.19;5058465;28;19932;-71
2022/06/14 08:45:33;;;;;;;;;;;;;;;-144.99;51.47;52187.19;5061103;28;20436;-71
2022/06/14 08:48:07;;;;;;;;;;;;;;;-144.99;50.25;52203.50;5057637;28;19928;-72
2022/06/14 08:50:57;;;;;;;;;;;;;;;-144.99;50.05;52195.34;5052100;28;20165;-71
2022/06/14 08:53:35;;;;;;;;;;;;;;;-144.99;49.62;52223.88;5054416;28;20495;-72
2022/06/14 08:56:25;;;;;;;;;;;;;;;-144.99;49.83;52227.97;5066677;28;19935;-70
2022/06/14 08:59:15;;;;;;;;;;;;;;;-144.99;49.87;52209.63;5060772;28;20388;-71
2022/06/14 09:01:54;;;;;;;;;;;;;;;-144.99;48.43;52187.19;5051815;28;20035;-72
2022/06/14 09:04:54;;;;;;;;;;;;;;;-144.99;48.28;52207.59;5058787;28;19925;-72
2022/06/14 09:07:39;;;;;;;;;;;;;;;-144.99;48.20;52225.94;5060761;28;19929;-70
2022/06/14 09:10:15;;;;;;;;;;;;;;;-144.99;47.89;52207.59;5055631;28;20103;-74
2022/06/14 09:13:06;;;;;;;;;;;;;;;-144.99;47.95;52232.03;5054080;28;20064;-72
2022/06/14 09:15:59;;;;;;;;;;;;;;;-144.99;48.24;52240.19;5048197;28;19985;-72
2022/06/14 09:18:37;;;;;;;;;;;;;;;-144.99;48.79;52223.88;5055031;28;20383;-72
2022/06/14 09:21:12;;;;;;;;;;;;;;;-144.99;49.60;52232.03;5057780;28;20011;-72
2022/06/14 09:23:44;;;;;;;;;;;;;;;-144.99;49.69;52215.75;5057100;28;20008;-73
2022/06/14 09:26:26;;;;;;;;;;;;;;;-144.99;49.38;52244.28;5059696;28;19935;-73
2022/06/14 09:29:15;;;;;;;;;;;;;;;-144.99;47.82;52215.75;5063681;28;19928;-71
2022/06/14 09:31:52;;;;;;;;;;;;;;;-144.99;47.79;52244.28;5059569;28;19984;-71
2022/06/14 09:34:27;;;;;;;;;;;;;;;-144.99;48.92;52260.56;5059266;28;19924;-71
2022/06/14 09:37:08;;;;;;;;;;;;;;;-144.99;49.85;52254.47;5094534;22;20432;-75
2022/06/14 09:39:47;;;;;;;;;;;;;;;-144.99;50.08;52244.28;5116423;28;19943;-78
2022/06/14 09:42:31;;;;;;;;;;;;;;;-144.99;50.02;52223.88;5138080;28;19961;-78
2022/06/14 09:45:14;;;;;;;;;;;;;;;-144.99;49.78;52256.50;5108652;28;19958;-78
2022/06/14 09:47:52;;;;;;;;;;;;;;;-144.99;49.82;52232.03;5116462;28;19946;-79
2022/06/14 09:50:34;;;;;;;;;;;;;;;-144.99;50.72;52207.59;5104116;28;20828;-78
2022/06/14 09:53:15;;;;;;;;;;;;;;;-144.99;49.86;52225.94;5105694;28;19927;-77
2022/06/14 09:55:59;;;;;;;;;;;;;;;-144.99;49.89;52232.03;5102549;28;24411;-77
2022/06/14 09:58:40;;;;;;;;;;;;;;;-144.99;49.49;52227.97;5110242;28;19920;-75
2022/06/14 10:01:15;;;;;;;;;;;;;;;-144.99;49.47;52195.34;5109649;28;19934;-78
2022/06/14 10:04:07;;;;;;;;;;;;;;;-144.99;49.33;52187.19;5108783;28;19912;-76
2022/06/14 10:06:42;;;;;;;;;;;;;;;-144.99;48.58;52158.66;5107548;28;19947;-77
2022/06/14 10:09:30;;;;;;;16.25;14.95;;;;;;;-144.99;47.84;52217.78;5106891;28;24473;-79
2022/06/14 10:12:09;;;;;;;;;;;;;;;-144.99;47.22;52195.34;5107834;28;20229;-79
2022/06/14 10:14:41;;;;;;;;;;;;;;;-144.99;47.26;52195.34;5102099;28;19951;-76
2022/06/14 10:17:16;;;;;;;;;;;;;;;-144.99;47.73;52195.34;5105192;28;19973;-77
2022/06/14 10:20:00;;;;;;;;;;;;;;;-144.99;45.67;52177.00;5105509;28;19943;-78
2022/06/14 10:22:31;;;;;;;;;;;;;;;-144.99;45.37;52177.00;5102445;28;19975;-79
2022/06/14 10:25:00;;;;;;;;;;;;;;;-144.99;45.08;52166.81;5109502;28;20228;-76
2022/06/14 10:30:23;;;;;;;;;;;;;;;-144.99;44.81;52113.84;5110241;28;19919;-77
2022/06/14 10:33:03;;;;;;;;;;;;;;;-144.99;44.36;52111.78;5113511;28;19983;-79
2022/06/14 10:35:33;;;;;;;;;;;;;;;-144.99;42.89;52138.28;5108284;28;19908;-79
2022/06/14 10:38:20;;;;;;;;;;;;;;;-144.99;42.37;52146.44;5107851;28;19924;-79
2022/06/14 10:40:53;;;;;;;;;;;;;;;-144.99;42.86;52183.13;5093277;28;19931;-77
2022/06/14 10:43:25;;;;;;;;;;;;;;;-144.99;42.66;52138.28;5107286;28;19908;-77
2022/06/14 10:45:54;;;;;;;;;;;;;;;-144.99;42.82;52138.28;5103607;28;19967;-78
2022/06/14 10:48:35;;;;;;;;;;;;;;;-144.99;42.23;52103.66;5104869;28;19908;-76
2022/06/14 10:51:11;;;;;;;;;;;;;;;-144.99;42.37;52138.28;5056739;28;19924;-80
2022/06/14 10:53:44;;;;;;;;;;;;;;;-144.99;42.18;52187.19;5109520;28;19912;-77
2022/06/14 10:56:22;;;;;;;;;;;;;;;-144.99;43.32;52232.03;5106152;28;19918;-78
2022/06/14 10:59:09;;;;;;;;;;;;;;;-144.99;43.93;52215.75;5105419;28;19924;-79
2022/06/14 11:01:42;;;;;;;;;;;;;;;-144.99;44.73;52187.19;5109038;28;19930;-76
2022/06/14 11:04:13;;;;;;;;;;;;;;;-144.99;43.87;52179.06;5115778;28;19927;-78
2022/06/14 11:06:58;;;;;;;;;;;;;;;-144.99;43.81;52219.81;5101476;28;20018;-76
2022/06/14 11:09:31;;;;;;;;;;;;;;;-144.99;44.34;52195.34;5093658;28;20386;-76
2022/06/14 11:12:22;;;;;;;;;;;;;;;-144.99;44.68;52195.34;5099516;28;20000;-80
2022/06/14 11:14:56;;;;;;;;;;;;;;;-144.99;44.36;52140.31;5103915;28;19952;-76
2022/06/14 11:17:33;;;;;;;;;;;;;;;-144.99;43.84;52113.84;5109838;28;19935;-79
2022/06/14 11:20:06;;;;;;;;;;;;;;;-144.99;43.39;52126.06;5109157;28;19930;-79
2022/06/14 11:22:36;;;;;;;;;;;;;;;-144.99;43.86;52162.75;5105459;28;19967;-75
2022/06/14 11:25:08;;;;;;;;;;;;;;;-144.99;43.25;52107.72;5101452;28;19924;-80
2022/06/14 11:27:38;;;;;;;;;;;;;;;-144.99;42.72;52085.31;5095921;28;19956;-75
2022/06/14 11:30:08;;;;;;;;;;;;;;;-144.99;43.30;52154.59;5091008;28;20244;-75
2022/06/14 11:32:40;;;;;;;;;;;;;;;-144.99;43.08;52101.59;5090632;28;19986;-76
2022/06/14 11:35:11;;;;;;;;;;;;;;;-144.99;42.22;52060.84;5087424;28;20011;-75
2022/06/14 11:37:53;;;;;;;;;;;;;;;-144.99;42.26;52093.44;5083557;28;21221;-76
2022/06/14 11:40:23;;;;;;;;;;;;;;;-144.99;42.29;52179.06;5090147;28;20454;-78
2022/06/14 11:42:53;;;;;;;;;;;;;;;-144.99;43.21;52164.78;5083868;28;20365;-77
2022/06/14 11:45:27;;;;;;;;;;;;;;;-144.99;43.41;52187.19;5099263;28;19947;-80
2022/06/14 11:47:57;;;;;;;;;;;;;;;-144.99;43.70;52183.13;5097929;28;19977;-77
2022/06/14 11:50:29;;;;;;;;;;;;;;;-144.99;43.71;52213.69;5086937;28;19943;-75
2022/06/14 11:53:03;;;;;;;;;;;;;;;-144.99;44.12;52170.91;5080812;28;19932;-79
2022/06/14 11:55:34;;;;;;;;;;;;;;;-144.99;44.59;52225.94;5108695;28;19939;-76
2022/06/14 11:58:07;;;;;;;;;;;;;;;-144.99;44.23;52170.91;5110176;28;19955;-78
2022/06/14 12:00:38;;;;;;;;;;;;;;;-144.99;44.46;52172.94;5101521;28;19915;-80
2022/06/14 12:03:13;;;;;;;;;;;;;;;-144.99;44.93;52195.34;5111108;28;19908;-79
2022/06/14 12:05:45;;;;;;;;;;;;;;;-144.99;44.83;52160.72;5108136;28;20116;-80
2022/06/14 12:08:26;;;;;;;;;;;;;;;-144.99;44.48;52168.84;5109539;28;19932;-77
2022/06/14 12:10:57;;;;;;;;;;;;;;;-144.99;44.02;52195.34;5102803;28;19908;-78
2022/06/14 12:13:40;;;;;;;;;;;;;;;-144.99;44.68;52193.31;5108451;28;19970;-79
2022/06/14 12:16:10;;;;;;;;;;;;;;;-144.99;44.92;52172.94;5107858;28;19908;-79
2022/06/14 12:18:39;;;;;;;;;;;;;;;-144.99;44.95;52191.28;5102414;28;19947;-79
2022/06/14 12:21:08;;;;;;;;;;;;;;;-144.99;44.77;52215.75;5110507;28;19975;-80
2022/06/14 12:23:38;;;;;;;;;;;;;;;-144.99;44.15;52213.69;5103156;28;19928;-79
2022/06/14 12:29:03;;;;;;;;;;;;;;;-144.99;43.61;52199.44;5088466;28;19916;-77
2022/06/14 12:31:33;;;;;;;;;;;;;;;-144.99;43.78;52227.97;5109053;28;19924;-77
2022/06/14 12:34:04;;;;;;;;;;;;;;;-144.99;44.37;52223.88;5112857;28;19907;-78
2022/06/14 12:36:36;;;;;;;;;;;;;;;-144.99;44.71;52201.47;5113616;28;19916;-76
2022/06/14 12:39:07;;;;;;;;;;;;;;;-144.99;45.12;52225.94;5108883;28;19936;-78
2022/06/14 12:41:38;;;;;;;;;;;;;;;-144.99;45.30;52221.84;5101807;28;19983;-75
2022/06/14 12:44:19;;;;;;;;;;;;;;;-144.99;45.74;52209.63;5107923;28;19908;-79
2022/06/14 12:46:47;;;;;;;;;;;;;;;-144.99;45.24;52219.81;5105012;28;19949;-80
2022/06/14 12:49:17;;;;;;;;;;;;;;;-144.99;45.06;52195.34;5107662;28;19937;-77
2022/06/14 12:51:48;;;;;;;;;;;;;;;-144.99;44.79;52183.13;5106496;28;19955;-77
2022/06/14 12:54:17;;;;;;;;;;;;;;;-144.99;44.28;52215.75;5108180;28;19931;-78
2022/06/14 12:56:48;;;;;;;;;;;;;;;-144.99;44.44;52232.03;5105717;28;19928;-77
2022/06/14 12:59:20;;;;;;;;;;;;;;;-144.99;44.99;52195.34;5109061;28;19908;-79
2022/06/14 13:01:49;;;;;;;;;;;;;;;-144.99;44.61;52195.34;5106766;28;19907;-79
2022/06/14 13:04:18;;;;;;;;;;;;;;;-144.99;44.86;52221.84;5108786;28;19924;-76